Terminal Aerodrome Forecast
Issued by NWS

Home | Current Version | Previous Version | Graphics & Text | Print | Product List | Glossary On
Versions: 1 2 3 4 5 6 7 8 9 10 11 12 13 14 15 16
000
FTUS43 KMPX 291255 AAA
TAFAXN
TAF AMD
KAXN 291255Z 2913/3012 20006KT P6SM BKN025
     FM291430 20009KT P6SM SCT025
     FM291800 20011KT P6SM SKC
     FM300000 18005KT P6SM SKC=

USA.gov is the U.S. government's official web portal to all federal, state and local government web resources and services.